Time;durP1;ratioP1;P1;durP2;ratioP2;P2;SDS_P1;SDS_P2;PMS_P1;PMS_P2;Temp;Humidity;BMP_temperature;BMP_pressure;BME280_temperature;BME280_humidity;BME280_pressure;Samples;Min_cycle;Max_cycle;Signal;HPM_P1;HPM_P2
2021/07/24 00:00:52;;;;;;;8.50;6.00;;;17.50;99.90;;;;;;6157361;23;20012;-84
2021/07/24 00:03:24;;;;;;;8.35;5.75;;;17.50;99.90;;;;;;6188324;23;20025;-85
2021/07/24 00:05:53;;;;;;;7.53;5.72;;;17.50;99.90;;;;;;6163919;23;20127;-84
2021/07/24 00:08:22;;;;;;;7.50;5.82;;;17.50;99.90;;;;;;6171116;23;20009;-86
2021/07/24 00:10:47;;;;;;;8.50;5.82;;;17.50;99.90;;;;;;6161388;23;20012;-86
2021/07/24 00:13:16;;;;;;;8.50;6.25;;;17.50;99.90;;;;;;6189051;23;20012;-86
2021/07/24 00:15:42;;;;;;;7.93;6.20;;;17.50;99.90;;;;;;6188581;23;20009;-85
2021/07/24 00:18:08;;;;;;;8.88;6.97;;;17.50;99.90;;;;;;6187764;23;20346;-84
2021/07/24 00:20:33;;;;;;;9.02;6.60;;;17.40;99.90;;;;;;6162668;23;20087;-84
2021/07/24 00:22:59;;;;;;;8.32;6.15;;;17.40;99.90;;;;;;6163082;23;20028;-86
2021/07/24 00:25:29;;;;;;;7.95;6.10;;;17.40;99.90;;;;;;6163378;23;20021;-83
2021/07/24 00:27:56;;;;;;;8.48;6.30;;;17.40;99.90;;;;;;6164585;23;20017;-83
2021/07/24 00:30:23;;;;;;;8.63;6.35;;;17.40;99.90;;;;;;6171204;23;20013;-84
2021/07/24 00:32:49;;;;;;;8.65;5.93;;;17.40;99.90;;;;;;6164104;23;20009;-85
2021/07/24 00:35:16;;;;;;;9.35;6.38;;;17.40;99.90;;;;;;6164544;23;19997;-84
2021/07/24 00:37:44;;;;;;;10.05;7.20;;;17.40;99.90;;;;;;6170675;23;20028;-85
2021/07/24 00:40:24;;;;;;;9.90;7.10;;;17.30;99.90;;;;;;6167160;23;20017;-84
2021/07/24 00:42:51;;;;;;;8.38;5.90;;;17.30;99.90;;;;;;6187710;23;20004;-85
2021/07/24 00:45:20;;;;;;;7.20;5.55;;;17.30;99.90;;;;;;6187591;23;20036;-84
2021/07/24 00:48:02;;;;;;;9.27;6.05;;;17.30;99.90;;;;;;6186644;23;20063;-83
2021/07/24 00:50:29;;;;;;;7.90;5.68;;;17.30;99.90;;;;;;6160096;23;20040;-87
2021/07/24 00:53:00;;;;;;;9.63;6.40;;;17.30;99.90;;;;;;6186190;23;20052;-86
2021/07/24 00:55:26;;;;;;;7.78;5.72;;;17.30;99.90;;;;;;6159453;23;20028;-84
2021/07/24 00:57:53;;;;;;;9.40;6.13;;;17.20;99.90;;;;;;6185840;23;20741;-85
2021/07/24 01:00:22;;;;;;;8.63;6.80;;;17.20;99.90;;;;;;6159862;23;20653;-85
2021/07/24 01:02:48;;;;;;;9.32;7.07;;;17.20;99.90;;;;;;6186582;23;20001;-84
2021/07/24 01:05:17;;;;;;;8.40;6.10;;;17.20;99.90;;;;;;6159392;23;20007;-84
2021/07/24 01:07:44;;;;;;;10.15;7.43;;;17.20;99.90;;;;;;6158158;23;20021;-85
2021/07/24 01:10:10;;;;;;;11.20;7.80;;;17.20;99.90;;;;;;6160060;23;20510;-85
2021/07/24 01:12:36;;;;;;;8.70;7.10;;;17.10;99.90;;;;;;6159934;23;20081;-85
2021/07/24 01:15:07;;;;;;;8.68;6.30;;;17.10;99.90;;;;;;6159239;23;20032;-85
2021/07/24 01:17:33;;;;;;;9.55;6.78;;;17.10;99.90;;;;;;6153162;23;20076;-84
2021/07/24 01:20:01;;;;;;;11.13;7.60;;;17.10;99.90;;;;;;6160151;23;20060;-84
2021/07/24 01:22:30;;;;;;;10.52;7.13;;;17.00;99.90;;;;;;6159940;23;20005;-87
2021/07/24 01:24:57;;;;;;;11.82;7.75;;;17.00;99.90;;;;;;6185624;23;20023;-85
2021/07/24 01:27:23;;;;;;;9.57;6.97;;;17.00;99.90;;;;;;6159459;23;20016;-86
2021/07/24 01:29:49;;;;;;;9.18;7.00;;;17.00;99.90;;;;;;6158746;23;20727;-84
2021/07/24 01:32:18;;;;;;;9.98;7.32;;;16.90;99.90;;;;;;6158603;23;20004;-85
2021/07/24 01:34:45;;;;;;;11.35;7.47;;;16.90;99.90;;;;;;6157579;23;20005;-85
2021/07/24 01:37:11;;;;;;;9.65;6.97;;;16.90;99.90;;;;;;6186209;23;20001;-86
2021/07/24 01:39:38;;;;;;;9.75;7.13;;;16.90;99.90;;;;;;6158073;23;20020;-84
2021/07/24 01:42:08;;;;;;;9.43;7.10;;;16.80;99.90;;;;;;6185931;23;20008;-86
2021/07/24 01:44:34;;;;;;;9.52;7.18;;;16.80;99.90;;;;;;6159377;23;20009;-85
2021/07/24 01:47:01;;;;;;;9.45;6.80;;;16.80;99.90;;;;;;6157725;23;20025;-83
2021/07/24 01:55:16;;;;;;;10.45;6.97;;;16.70;99.90;;;;;;6186923;23;20465;-87
2021/07/24 01:57:47;;;;;;;9.57;7.13;;;16.60;99.90;;;;;;6205872;23;20033;-84
2021/07/24 02:00:13;;;;;;;9.73;6.72;;;16.60;99.90;;;;;;6165558;23;20009;-86
2021/07/24 02:02:41;;;;;;;11.02;7.75;;;16.60;99.90;;;;;;6159219;23;20012;-85
2021/07/24 02:05:14;;;;;;;10.57;6.95;;;16.60;99.90;;;;;;6186124;23;20682;-85
2021/07/24 02:07:44;;;;;;;10.40;7.47;;;16.50;99.90;;;;;;6164133;23;20013;-84
2021/07/24 02:10:10;;;;;;;10.00;6.53;;;16.50;99.90;;;;;;6163215;23;19997;-83
2021/07/24 02:12:36;;;;;;;9.05;6.55;;;16.50;99.90;;;;;;6162898;23;20001;-83
2021/07/24 02:15:03;;;;;;;9.05;6.47;;;16.40;99.90;;;;;;6162587;23;20001;-84
2021/07/24 02:17:31;;;;;;;9.25;6.45;;;16.40;99.90;;;;;;6161485;23;20016;-83
2021/07/24 02:20:03;;;;;;;9.38;6.03;;;16.40;99.90;;;;;;6163437;23;20445;-85
2021/07/24 02:22:29;;;;;;;8.13;5.65;;;16.40;99.90;;;;;;6163110;23;20001;-84
2021/07/24 02:25:00;;;;;;;9.15;6.38;;;16.30;99.90;;;;;;6163425;23;20020;-85
2021/07/24 02:27:25;;;;;;;9.38;6.75;;;16.30;99.90;;;;;;6188005;23;20093;-85
2021/07/24 02:29:51;;;;;;;9.18;6.47;;;16.30;99.90;;;;;;6161062;23;19997;-84
2021/07/24 02:32:18;;;;;;;8.57;6.28;;;16.30;99.90;;;;;;6162003;23;19997;-85
2021/07/24 02:34:45;;;;;;;10.70;7.18;;;16.20;99.90;;;;;;6162422;23;20083;-83
2021/07/24 02:37:12;;;;;;;9.02;6.30;;;16.20;99.90;;;;;;6188405;23;20025;-84
2021/07/24 02:39:38;;;;;;;9.27;6.75;;;16.20;99.90;;;;;;6187781;23;20005;-84
2021/07/24 02:42:06;;;;;;;9.52;6.90;;;16.20;99.90;;;;;;6188428;23;19997;-84
2021/07/24 02:44:32;;;;;;;9.77;6.85;;;16.10;99.90;;;;;;6192234;23;20009;-84
2021/07/24 02:46:58;;;;;;;9.18;7.00;;;16.10;99.90;;;;;;6174334;23;20009;-83
2021/07/24 02:49:25;;;;;;;9.68;6.60;;;16.10;99.90;;;;;;6186922;23;20032;-84
2021/07/24 02:51:52;;;;;;;8.93;6.30;;;16.10;99.90;;;;;;6158950;23;20009;-84
2021/07/24 02:54:17;;;;;;;9.63;6.30;;;16.10;99.90;;;;;;6159960;23;20005;-83
2021/07/24 02:56:43;;;;;;;9.65;6.88;;;16.10;99.90;;;;;;6161102;23;20016;-84
2021/07/24 02:59:11;;;;;;;8.75;5.97;;;16.00;99.90;;;;;;6186512;23;20001;-83
2021/07/24 03:01:37;;;;;;;8.50;5.80;;;16.00;99.90;;;;;;6187405;23;20024;-84
2021/07/24 03:04:03;;;;;;;8.65;5.93;;;16.00;99.90;;;;;;6161985;23;20411;-86
2021/07/24 03:06:29;;;;;;;9.38;6.53;;;16.00;99.90;;;;;;6163039;23;20426;-83
2021/07/24 03:08:57;;;;;;;10.75;7.20;;;15.90;99.90;;;;;;6162284;23;20338;-85
2021/07/24 03:11:25;;;;;;;9.07;6.30;;;15.90;99.90;;;;;;6190004;23;20005;-84
2021/07/24 03:13:51;;;;;;;8.98;6.57;;;15.90;99.90;;;;;;6163958;23;20063;-85
2021/07/24 03:16:17;;;;;;;9.70;6.57;;;15.90;99.90;;;;;;6189497;23;20056;-84
2021/07/24 03:18:43;;;;;;;9.57;7.30;;;15.80;99.90;;;;;;6174878;23;20001;-85
2021/07/24 03:21:09;;;;;;;9.27;6.75;;;15.80;99.90;;;;;;6166254;23;20070;-84
2021/07/24 03:23:34;;;;;;;11.00;8.25;;;15.80;99.90;;;;;;6165355;23;20008;-85
2021/07/24 03:26:00;;;;;;;10.40;7.35;;;15.80;99.90;;;;;;6137097;23;20045;-84
2021/07/24 03:28:26;;;;;;;10.13;6.70;;;15.80;99.90;;;;;;6162668;23;20067;-85
2021/07/24 03:30:58;;;;;;;12.57;8.00;;;15.70;99.90;;;;;;6164462;23;20397;-85
2021/07/24 03:33:25;;;;;;;10.82;7.35;;;15.80;99.90;;;;;;6190459;23;20001;-84
2021/07/24 03:35:52;;;;;;;10.88;7.60;;;15.70;99.90;;;;;;6165544;23;20001;-83
2021/07/24 03:38:19;;;;;;;10.23;7.13;;;15.70;99.90;;;;;;6165282;23;20012;-84
2021/07/24 03:40:48;;;;;;;9.23;6.53;;;15.70;99.90;;;;;;6164576;23;20005;-84
2021/07/24 03:43:15;;;;;;;9.35;6.43;;;15.70;99.90;;;;;;6164812;23;20438;-84
2021/07/24 03:45:41;;;;;;;10.05;6.32;;;15.70;99.90;;;;;;6169203;23;20004;-83
2021/07/24 03:48:07;;;;;;;8.52;6.05;;;15.70;99.90;;;;;;6182097;23;20012;-85
2021/07/24 03:50:33;;;;;;;9.23;6.20;;;15.70;99.90;;;;;;6190186;23;20422;-85
2021/07/24 03:53:01;;;;;;;9.65;6.97;;;15.70;99.90;;;;;;6164071;23;20001;-84
2021/07/24 03:55:27;;;;;;;11.13;7.75;;;15.60;99.90;;;;;;6165226;23;20002;-84
2021/07/24 03:57:57;;;;;;;10.50;7.68;;;15.70;99.90;;;;;;6164213;23;20005;-85
2021/07/24 04:00:24;;;;;;;11.27;6.93;;;15.70;99.90;;;;;;6191134;23;20514;-85
2021/07/24 04:02:51;;;;;;;10.38;7.40;;;15.70;99.90;;;;;;6191907;23;20001;-86
2021/07/24 04:05:18;;;;;;;12.02;7.50;;;15.70;99.90;;;;;;6165270;23;20088;-84
2021/07/24 04:07:44;;;;;;;10.40;7.55;;;15.70;99.90;;;;;;6191838;23;20009;-84
2021/07/24 04:10:11;;;;;;;10.25;7.90;;;15.70;99.90;;;;;;6191539;23;20462;-84
2021/07/24 04:12:41;;;;;;;14.38;9.25;;;15.70;99.90;;;;;;6165587;23;20087;-85
2021/07/24 04:15:09;;;;;;;13.23;8.75;;;15.70;99.90;;;;;;6166313;23;20084;-85
2021/07/24 04:17:37;;;;;;;11.00;8.35;;;15.70;99.90;;;;;;6142009;23;20016;-84
2021/07/24 04:20:06;;;;;;;11.82;8.10;;;15.80;99.90;;;;;;6164652;23;20334;-84
2021/07/24 04:22:32;;;;;;;9.13;6.65;;;15.80;99.90;;;;;;6140715;23;20073;-85
2021/07/24 04:24:59;;;;;;;10.93;7.63;;;15.80;99.90;;;;;;6165422;23;20020;-82
2021/07/24 04:27:26;;;;;;;10.07;6.75;;;15.90;99.90;;;;;;6165191;23;20013;-86
2021/07/24 04:29:53;;;;;;;9.02;6.22;;;16.00;99.90;;;;;;6166238;23;20007;-87
2021/07/24 04:32:19;;;;;;;8.60;6.00;;;16.00;99.90;;;;;;6190791;23;20032;-86
2021/07/24 04:34:45;;;;;;;9.95;6.57;;;16.10;99.90;;;;;;6165350;23;20001;-86
2021/07/24 04:37:15;;;;;;;9.75;7.45;;;16.10;99.90;;;;;;6164569;23;20426;-86
2021/07/24 04:39:40;;;;;;;11.57;7.55;;;16.20;99.90;;;;;;6191267;23;20009;-86
2021/07/24 04:42:07;;;;;;;8.70;5.82;;;16.20;99.90;;;;;;6165832;23;20426;-85
2021/07/24 04:44:33;;;;;;;8.82;6.00;;;16.20;99.90;;;;;;6166379;23;20052;-85
2021/07/24 04:47:01;;;;;;;8.95;6.28;;;16.20;99.90;;;;;;6191325;23;20012;-86
2021/07/24 04:49:33;;;;;;;9.27;6.18;;;16.30;99.90;;;;;;6166450;23;20047;-83
2021/07/24 04:52:02;;;;;;;8.50;6.00;;;16.30;99.90;;;;;;6168482;23;20079;-84
2021/07/24 04:54:29;;;;;;;10.35;6.63;;;16.30;99.90;;;;;;6177969;23;19997;-86
2021/07/24 04:56:59;;;;;;;8.25;5.78;;;16.30;99.90;;;;;;6166437;23;20440;-85
2021/07/24 04:59:28;;;;;;;8.70;5.85;;;16.40;99.90;;;;;;6191092;23;20024;-85
2021/07/24 05:01:56;;;;;;;9.50;6.47;;;16.50;99.90;;;;;;6164842;23;20080;-85
2021/07/24 05:04:24;;;;;;;9.85;7.00;;;16.50;99.90;;;;;;6165760;23;20012;-85
2021/07/24 05:07:11;;;;;;;10.52;7.03;;;16.50;99.90;;;;;;6190489;23;20494;-86
2021/07/24 05:09:36;;;;;;;11.93;8.13;;;16.60;99.90;;;;;;6191195;23;20016;-85
2021/07/24 05:12:04;;;;;;;10.77;7.25;;;16.60;99.90;;;;;;6164508;23;20009;-84
2021/07/24 05:14:30;;;;;;;10.98;6.78;;;16.60;99.90;;;;;;6164169;23;20461;-85
2021/07/24 05:17:15;;;;;;;9.88;6.97;;;16.70;99.90;;;;;;6163647;23;20019;-84
2021/07/24 05:19:44;;;;;;;9.43;6.70;;;16.70;99.90;;;;;;6191683;23;20291;-83
2021/07/24 05:22:18;;;;;;;9.75;6.43;;;16.70;99.90;;;;;;6163790;23;19997;-84
2021/07/24 05:24:44;;;;;;;11.48;6.70;;;16.80;99.90;;;;;;6163585;23;20023;-83
2021/07/24 05:27:12;;;;;;;8.73;5.30;;;16.80;99.90;;;;;;6188482;23;20009;-83
2021/07/24 05:29:40;;;;;;;8.68;6.40;;;16.90;99.90;;;;;;6190069;23;20012;-82
2021/07/24 05:32:06;;;;;;;9.68;6.25;;;17.00;99.90;;;;;;6163966;23;20039;-84
2021/07/24 05:34:32;;;;;;;8.85;5.90;;;17.00;99.90;;;;;;6163259;23;20008;-85
2021/07/24 05:37:06;;;;;;;9.05;6.32;;;17.10;99.90;;;;;;6208986;23;20053;-84
2021/07/24 05:39:39;;;;;;;9.23;6.65;;;17.20;99.90;;;;;;6192493;23;20414;-86
2021/07/24 05:42:04;;;;;;;8.10;5.63;;;17.20;99.90;;;;;;6190864;23;20005;-86
2021/07/24 05:44:32;;;;;;;7.85;5.63;;;17.30;99.90;;;;;;6164510;23;20417;-85
2021/07/24 05:46:59;;;;;;;7.50;5.28;;;17.30;99.90;;;;;;6164234;23;20021;-84
2021/07/24 05:49:30;;;;;;;8.00;5.68;;;17.40;99.90;;;;;;6164345;23;20485;-85
2021/07/24 05:51:56;;;;;;;7.65;5.60;;;17.50;99.90;;;;;;6164016;23;20001;-84
2021/07/24 05:54:24;;;;;;;8.05;5.63;;;17.60;99.90;;;;;;6163202;23;19997;-84
2021/07/24 05:56:50;;;;;;;8.05;5.53;;;17.70;99.90;;;;;;6163500;23;20005;-83
2021/07/24 05:59:20;;;;;;;9.13;6.00;;;17.70;99.90;;;;;;6162237;23;20005;-83
2021/07/24 06:01:47;;;;;;;9.02;6.75;;;17.80;99.90;;;;;;6163400;23;20033;-83
2021/07/24 06:04:14;;;;;;;10.90;7.18;;;17.80;99.90;;;;;;6189116;23;19997;-83
2021/07/24 06:06:41;;;;;;;8.20;6.05;;;17.90;99.90;;;;;;6163339;23;20059;-85
2021/07/24 06:09:07;;;;;;;9.43;6.13;;;17.90;99.90;;;;;;6163088;23;20144;-85
2021/07/24 06:11:34;;;;;;;10.18;7.10;;;18.00;99.90;;;;;;6163385;23;20005;-83
2021/07/24 06:14:00;;;;;;;10.32;6.88;;;18.10;99.90;;;;;;6189547;23;20001;-84
2021/07/24 06:16:26;;;;;;;10.70;6.80;;;18.10;99.90;;;;;;6163693;23;20076;-84
2021/07/24 06:19:11;;;;;;;9.95;6.05;;;18.10;99.90;;;;;;6164238;23;20004;-84
2021/07/24 06:21:39;;;;;;;10.50;6.55;;;18.20;99.90;;;;;;6163024;23;20001;-83
2021/07/24 06:24:05;;;;;;;8.43;6.18;;;18.20;99.90;;;;;;6164024;23;20001;-85
2021/07/24 06:26:38;;;;;;;10.77;7.90;;;18.20;99.90;;;;;;6189332;23;20019;-84
2021/07/24 06:29:06;;;;;;;10.77;7.95;;;18.30;99.90;;;;;;6190647;23;20406;-84
2021/07/24 06:31:32;;;;;;;10.43;7.82;;;18.40;99.90;;;;;;6164122;23;19997;-84
2021/07/24 06:34:04;;;;;;;8.48;6.15;;;18.40;99.90;;;;;;6163463;23;20004;-86
2021/07/24 06:36:39;;;;;;;8.88;6.07;;;18.40;99.90;;;;;;6163029;23;20013;-85
2021/07/24 06:39:15;;;;;;;8.00;5.68;;;18.50;99.90;;;;;;6160210;23;20016;-85
2021/07/24 06:41:42;;;;;;;7.60;5.70;;;18.70;99.90;;;;;;6187560;23;20414;-84
2021/07/24 06:44:09;;;;;;;7.55;5.57;;;18.80;99.90;;;;;;6186368;23;20088;-86
2021/07/24 06:46:35;;;;;;;7.63;5.90;;;18.80;99.90;;;;;;6161899;23;20039;-84
2021/07/24 06:49:31;;;;;;;7.78;5.80;;;18.90;99.90;;;;;;6174878;23;19997;-85
2021/07/24 06:51:59;;;;;;;9.57;7.05;;;18.90;99.90;;;;;;6188050;23;20001;-84
2021/07/24 06:54:26;;;;;;;9.63;5.93;;;18.90;99.90;;;;;;6161016;23;20437;-83
2021/07/24 06:56:52;;;;;;;9.90;7.03;;;18.90;99.90;;;;;;6159635;23;20008;-84
2021/07/24 06:59:25;;;;;;;11.30;7.07;;;19.00;99.90;;;;;;6188300;23;20460;-85
2021/07/24 07:01:53;;;;;;;9.75;6.40;;;19.00;99.90;;;;;;6176160;23;20005;-85
2021/07/24 07:04:19;;;;;;;10.20;6.80;;;19.00;99.90;;;;;;6163266;23;20005;-83
2021/07/24 07:06:51;;;;;;;8.95;6.38;;;19.00;99.90;;;;;;6162635;23;20017;-86
2021/07/24 07:09:23;;;;;;;8.57;6.32;;;19.10;99.90;;;;;;6163040;23;20012;-85
2021/07/24 07:11:59;;;;;;;9.30;6.70;;;19.10;99.90;;;;;;6164185;23;20418;-85
2021/07/24 07:14:29;;;;;;;7.50;6.00;;;19.20;99.90;;;;;;6162877;23;20025;-85
2021/07/24 07:16:56;;;;;;;8.90;6.10;;;19.30;99.90;;;;;;6161644;23;20573;-86
2021/07/24 07:19:22;;;;;;;7.30;5.57;;;19.30;99.90;;;;;;6162462;23;20043;-86
2021/07/24 07:21:49;;;;;;;7.55;5.43;;;19.40;99.90;;;;;;6188814;23;20006;-85
2021/07/24 07:24:23;;;;;;;6.90;5.47;;;19.50;99.90;;;;;;6191311;23;20406;-85
2021/07/24 07:26:52;;;;;;;7.45;6.07;;;19.60;99.90;;;;;;6177190;23;20032;-84
2021/07/24 07:29:22;;;;;;;7.50;5.57;;;19.60;99.90;;;;;;6174193;23;20013;-85
2021/07/24 07:31:49;;;;;;;7.15;5.15;;;19.70;99.90;;;;;;6161232;23;20322;-85
2021/07/24 07:34:24;;;;;;;8.13;5.40;;;19.80;99.90;;;;;;6188914;23;20001;-84
2021/07/24 07:36:50;;;;;;;7.70;6.07;;;19.80;99.90;;;;;;6163039;23;20453;-83
2021/07/24 07:39:16;;;;;;;8.93;6.65;;;19.90;99.90;;;;;;6164261;23;20027;-85
2021/07/24 07:41:43;;;;;;;8.27;5.47;;;20.00;99.90;;;;;;6166490;23;20033;-84
2021/07/24 07:44:14;;;;;;;7.07;5.47;;;20.00;99.90;;;;;;6191504;23;20452;-85
2021/07/24 07:46:41;;;;;;;8.02;5.68;;;20.10;99.90;;;;;;6191162;23;20013;-84
2021/07/24 07:49:09;;;;;;;7.97;6.13;;;20.20;99.90;;;;;;6166085;23;20001;-84
2021/07/24 07:51:38;;;;;;;9.27;6.60;;;20.30;99.90;;;;;;6165855;23;20438;-84
2021/07/24 07:54:07;;;;;;;9.88;7.35;;;20.30;99.90;;;;;;6164976;23;20009;-85
2021/07/24 07:56:37;;;;;;;9.77;6.63;;;20.30;99.90;;;;;;6165426;23;20004;-83
2021/07/24 07:59:09;;;;;;;7.78;5.72;;;20.40;99.90;;;;;;6166018;23;20434;-83
2021/07/24 08:01:38;;;;;;;6.97;5.60;;;20.50;99.90;;;;;;6165573;23;20035;-83
2021/07/24 08:04:05;;;;;;;7.75;5.93;;;20.60;99.90;;;;;;6191050;23;20403;-84
2021/07/24 08:06:37;;;;;;;9.45;7.13;;;20.70;99.90;;;;;;6165200;23;20013;-84
2021/07/24 08:09:19;;;;;;;8.55;7.18;;;20.80;99.90;;;;;;6191897;23;20045;-84
2021/07/24 08:11:50;;;;;;;8.80;6.82;;;20.80;99.90;;;;;;6165125;23;20001;-83
2021/07/24 08:14:21;;;;;;;8.00;6.35;;;20.90;99.90;;;;;;6165364;23;20009;-84
2021/07/24 08:16:48;;;;;;;8.80;7.03;;;21.10;99.90;;;;;;6165915;23;20052;-83
2021/07/24 08:19:17;;;;;;;9.05;6.22;;;21.20;99.90;;;;;;6191855;23;20008;-85
2021/07/24 08:21:44;;;;;;;8.07;6.32;;;21.40;99.90;;;;;;6164392;23;20450;-84
2021/07/24 08:24:14;;;;;;;8.15;6.13;;;21.60;99.90;;;;;;6191544;23;20001;-83
2021/07/24 08:27:00;;;;;;;7.93;6.15;;;21.80;99.90;;;;;;6164425;23;20068;-84
2021/07/24 08:29:28;;;;;;;7.82;5.65;;;21.90;99.90;;;;;;6191770;23;19997;-82
2021/07/24 08:31:58;;;;;;;7.65;5.30;;;22.00;99.90;;;;;;6164610;23;20001;-84
2021/07/24 08:34:34;;;;;;;8.15;5.40;;;22.10;99.90;;;;;;6165088;23;20047;-84
2021/07/24 08:37:10;;;;;;;7.50;5.53;;;22.20;99.90;;;;;;6164052;23;20426;-84
2021/07/24 08:39:36;;;;;;;6.03;5.03;;;22.40;99.90;;;;;;6164643;23;20000;-85
2021/07/24 08:42:07;;;;;;;6.80;4.65;;;22.50;99.90;;;;;;6164816;23;20005;-84
2021/07/24 08:45:19;;;;;;;6.22;5.13;;;22.70;99.90;;;;;;6163989;23;20009;-84
2021/07/24 08:48:08;;;;;;;7.68;5.13;;;23.00;99.90;;;;;;6037749;23;20094;-83
2021/07/24 08:50:59;;;;;;;6.47;5.20;;;23.10;99.90;;;;;;6017936;23;20007;-84
2021/07/24 08:53:40;;;;;;;5.93;4.88;;;23.30;99.90;;;;;;6165266;23;20032;-85
2021/07/24 08:56:32;;;;;;;6.75;5.00;;;23.50;99.90;;;;;;6159964;23;20005;-84
2021/07/24 08:59:05;;;;;;;6.17;4.40;;;23.70;99.90;;;;;;6163210;23;20001;-83
2021/07/24 09:01:35;;;;;;;6.13;5.03;;;23.80;99.90;;;;;;6164007;23;20343;-84
2021/07/24 09:04:23;;;;;;;7.03;4.85;;;23.90;99.90;;;;;;6141709;23;20008;-83
2021/07/24 09:07:32;;;;;;;12.60;5.47;;;24.10;99.90;;;;;;6198184;23;20084;-83
2021/07/24 09:10:19;;;;;;;8.20;5.55;;;24.00;99.90;;;;;;6193645;23;20023;-85
2021/07/24 09:12:52;;;;;;;6.32;5.05;;;24.00;99.90;;;;;;6163681;23;20107;-83
2021/07/24 09:15:21;;;;;;;8.45;5.45;;;24.20;99.90;;;;;;6140023;23;20013;-84
2021/07/24 09:18:01;;;;;;;8.93;5.70;;;24.50;99.90;;;;;;6168102;23;20005;-83
2021/07/24 09:20:44;;;;;;;7.68;5.47;;;24.70;99.90;;;;;;6201425;23;20013;-83
2021/07/24 09:23:51;;;;;;;;;;;;;;;;;;;;;
2021/07/24 09:26:36;;;;;;;5.47;4.70;;;24.60;99.90;;;;;;6189984;23;20116;-86
2021/07/24 09:29:14;;;;;;;4.97;4.47;;;24.80;99.90;;;;;;6189544;23;20028;-85
2021/07/24 09:31:44;;;;;;;6.32;4.65;;;25.00;99.90;;;;;;6189629;23;20001;-84
2021/07/24 09:34:13;;;;;;;6.53;5.25;;;25.20;99.90;;;;;;6163081;23;20055;-86
2021/07/24 09:37:03;;;;;;;6.22;4.68;;;25.20;99.90;;;;;;6189627;23;20012;-89
2021/07/24 09:39:40;;;;;;;5.75;4.55;;;25.20;99.90;;;;;;6188180;23;20009;-86
2021/07/24 09:42:17;;;;;;;7.43;6.10;;;25.30;99.90;;;;;;6164097;23;20299;-86
2021/07/24 09:45:05;;;;;;;6.45;5.10;;;25.30;99.80;;;;;;6159728;23;20033;-89
2021/07/24 09:48:17;;;;;;;5.82;4.90;;;25.20;99.90;;;;;;6164719;23;20426;-88
2021/07/24 09:50:56;;;;;;;6.63;5.40;;;25.20;99.80;;;;;;6117169;23;20017;-87
2021/07/24 09:53:43;;;;;;;6.80;5.68;;;25.10;99.80;;;;;;6164594;23;20009;-87
2021/07/24 09:56:18;;;;;;;8.80;5.55;;;24.90;99.70;;;;;;6191250;23;19997;-86
2021/07/24 09:59:00;;;;;;;;;;;;;;;;;;;;;
2021/07/24 10:05:23;;;;;;;7.78;4.80;;;24.90;99.80;;;;;;6136715;23;20009;-87
2021/07/24 10:08:11;;;;;;;;;;;;;;;;;;;;;
2021/07/24 10:11:19;;;;;;;;;;;;;;;;;;;;;
2021/07/24 10:14:21;;;;;;;6.22;5.22;;;25.00;99.70;;;;;;6192947;23;20381;-86
2021/07/24 10:16:57;;;;;;;6.63;5.03;;;25.00;99.60;;;;;;6177123;23;20034;-85
2021/07/24 10:19:29;;;;;;;8.30;6.82;;;25.00;99.60;;;;;;6172093;23;20053;-87
2021/07/24 10:22:04;;;;;;;9.63;7.43;;;24.90;99.50;;;;;;6169204;23;20029;-87
2021/07/24 10:24:35;;;;;;;8.32;6.18;;;24.80;99.20;;;;;;6195090;23;19982;-87
2021/07/24 10:27:59;;;;;;;10.07;7.22;;;24.80;99.50;;;;;;6168257;23;20012;-87
2021/07/24 10:30:47;;;;;;;9.65;7.72;;;24.70;99.40;;;;;;6197529;23;19999;-83
2021/07/24 10:33:26;;;;;;;11.18;9.10;;;24.60;99.30;;;;;;6183544;23;19985;-86
2021/07/24 10:36:32;;;;;;;8.25;7.30;;;24.40;99.20;;;;;;6186487;23;20004;-86
2021/07/24 10:39:17;;;;;;;11.70;9.10;;;24.40;99.40;;;;;;6202823;23;20009;-87
2021/07/24 10:42:14;;;;;;;10.50;8.35;;;24.40;99.30;;;;;;6210041;23;20001;-88
2021/07/24 10:45:27;;;;;;;9.02;7.35;;;24.20;99.30;;;;;;6195209;23;20008;-89
2021/07/24 10:48:54;;;;;;;14.20;9.60;;;24.20;99.60;;;;;;6059372;23;20017;-90
2021/07/24 10:51:29;;;;;;;13.20;10.27;;;24.00;99.60;;;;;;6021489;23;20004;-90
2021/07/24 10:54:13;;;;;;;11.15;8.02;;;24.00;99.70;;;;;;6023670;23;20011;-90
2021/07/24 10:57:03;;;;;;;9.77;8.07;;;24.00;99.80;;;;;;6164810;23;20032;-89
2021/07/24 11:00:50;;;;;;;10.05;7.40;;;24.00;99.80;;;;;;6147267;23;20001;-88
2021/07/24 11:03:48;;;;;;;11.05;7.50;;;24.00;99.90;;;;;;6074424;23;20011;-90
2021/07/24 11:06:49;;;;;;;8.65;6.35;;;24.00;99.90;;;;;;6092329;23;20020;-87
2021/07/24 11:12:56;;;;;;;8.43;6.25;;;24.10;99.90;;;;;;6179386;23;20015;-89
2021/07/24 11:15:43;;;;;;;7.90;6.20;;;24.10;99.90;;;;;;6129287;23;20095;-86
2021/07/24 11:18:30;;;;;;;8.40;6.47;;;24.10;99.90;;;;;;6193331;23;20005;-88
2021/07/24 11:21:00;;;;;;;9.93;7.40;;;24.10;99.90;;;;;;6166012;23;20028;-87
2021/07/24 11:23:29;;;;;;;8.02;6.55;;;24.00;99.90;;;;;;6167691;23;20308;-89
2021/07/24 11:26:21;;;;;;;9.38;7.38;;;23.90;99.90;;;;;;6168372;23;20009;-88
2021/07/24 11:29:15;;;;;;;7.38;6.20;;;23.80;99.90;;;;;;6168338;23;20024;-90
2021/07/24 11:31:43;;;;;;;7.95;6.18;;;23.90;99.90;;;;;;6141757;23;20033;-88
2021/07/24 11:34:33;;;;;;;;;;;;;;;;;;;;;
2021/07/24 11:37:24;;;;;;;;;;;;;;;;;;;;;
2021/07/24 11:40:00;;;;;;;7.38;5.82;;;24.00;99.90;;;;;;6180726;23;20454;-88
2021/07/24 11:46:14;;;;;;;;;;;24.20;99.90;;;;;;6101099;23;20059;-89
2021/07/24 11:49:47;;;;;;;;;;;;;;;;;;;;;
2021/07/24 11:56:09;;;;;;;;;;;;;;;;;;;;;
2021/07/24 12:03:03;;;;;;;;;;;;;;;;;;;;;
2021/07/24 12:05:48;;;;;;;8.40;6.03;;;24.20;99.90;;;;;;6068470;23;20365;-88
2021/07/24 12:08:53;;;;;;;;;;;;;;;;;;;;;
2021/07/24 12:15:10;;;;;;;8.68;5.68;;;24.30;99.90;;;;;;6015579;23;20008;-90
2021/07/24 12:24:26;;;;;;;8.23;6.95;;;24.30;99.90;;;;;;6071833;23;20011;-89
2021/07/24 12:31:22;;;;;;;;;;;;;;;;;;;;;
2021/07/24 12:34:16;;;;;;;8.93;7.13;;;24.20;99.90;;;;;;6036955;23;20052;-89
2021/07/24 12:40:41;;;;;;;7.72;6.55;;;24.20;99.90;;;;;;6179423;23;20012;-88
2021/07/24 12:43:50;;;;;;;9.47;7.30;;;24.10;99.90;;;;;;6165938;23;20021;-87
2021/07/24 12:46:33;;;;;;;;;;;;;;;;;;;;;
2021/07/24 12:50:05;;;;;;;;;;;;;;;;;;;;;
2021/07/24 12:52:57;;;;;;;9.57;7.38;;;24.10;99.90;;;;;;6042161;23;19995;-88
2021/07/24 13:03:25;;;;;;;7.95;6.53;;;24.30;99.90;;;;;;6028572;23;20026;-88
2021/07/24 13:06:27;;;;;;;;;;;;;;;;;;;;;
2021/07/24 13:12:11;;;;;;;;;;;;;;;;;;;;;
2021/07/24 13:14:58;;;;;;;10.02;8.05;;;24.70;99.90;;;;;;6201737;23;20199;-88
2021/07/24 13:18:21;;;;;;;;;;;;;;;;;;;;;
2021/07/24 13:21:01;;;;;;;;;;;;;;;;;;;;;
2021/07/24 13:38:24;;;;;;;9.98;8.65;;;25.10;99.90;;;;;;5136202;27;20410;-93
2021/07/24 13:46:29;;;;;;;13.93;10.48;;;25.30;99.40;;;;;;5142875;22;20063;-90
2021/07/24 13:49:04;;;;;;;13.80;9.55;;;25.30;98.90;;;;;;5116315;28;20065;-88
2021/07/24 13:52:02;;;;;;;10.43;9.02;;;25.20;98.70;;;;;;5116982;28;20024;-88
2021/07/24 13:55:05;;;;;;;;;;;;;;;;;;;;;
2021/07/24 13:57:38;;;;;;;10.50;9.20;;;25.20;98.50;;;;;;5116208;28;20115;-90
2021/07/24 14:00:53;;;;;;;;;;;;;;;;;;;;;
2021/07/24 14:03:39;;;;;;;10.60;8.85;;;25.10;98.80;;;;;;5109459;28;20490;-90
2021/07/24 14:07:45;;;;;;;11.55;9.63;;;25.10;98.80;;;;;;5104612;28;20040;-90
2021/07/24 14:10:29;;;;;;;11.73;9.07;;;25.20;98.60;;;;;;5051059;28;20041;-89
2021/07/24 14:12:58;;;;;;;11.05;8.32;;;25.10;98.60;;;;;;5086881;28;20032;-89
2021/07/24 14:15:47;;;;;;;10.27;8.77;;;25.10;98.70;;;;;;5116018;28;20060;-89
2021/07/24 14:18:15;;;;;;;10.15;8.05;;;25.10;98.60;;;;;;5115337;28;20036;-88
2021/07/24 14:20:43;;;;;;;9.98;7.80;;;25.10;98.60;;;;;;5098614;28;20042;-89
2021/07/24 14:24:02;;;;;;;10.35;8.68;;;25.20;98.60;;;;;;5115652;28;20412;-88
2021/07/24 14:26:34;;;;;;;9.02;8.00;;;25.20;98.60;;;;;;5116506;28;20096;-90
2021/07/24 14:29:09;;;;;;;9.15;7.65;;;25.10;98.60;;;;;;5117308;28;20024;-89
2021/07/24 14:31:45;;;;;;;8.82;7.38;;;25.10;98.70;;;;;;5112683;28;20039;-89
2021/07/24 14:34:49;;;;;;;;;;;;;;;;;;;;;
2021/07/24 14:37:55;;;;;;;;;;;;;;;;;;;;;
2021/07/24 14:40:57;;;;;;;9.32;7.70;;;24.90;99.00;;;;;;5115770;28;20194;-88
2021/07/24 14:44:03;;;;;;;9.80;8.38;;;24.80;99.00;;;;;;5114796;28;20400;-89
2021/07/24 14:47:06;;;;;;;7.97;6.97;;;24.70;99.20;;;;;;5119862;28;20044;-88
2021/07/24 14:50:04;;;;;;;;;;;;;;;;;;;;;
2021/07/24 14:55:52;;;;;;;13.85;9.65;;;24.80;99.30;;;;;;5088102;28;20038;-87
2021/07/24 14:58:58;;;;;;;10.90;8.55;;;24.80;99.30;;;;;;5091476;28;20044;-88
2021/07/24 15:02:32;;;;;;;;;;;;;;;;;;;;;
2021/07/24 15:05:25;;;;;;;12.48;9.68;;;24.50;99.50;;;;;;5101407;28;20119;-90
2021/07/24 15:08:32;;;;;;;;;;;;;;;;;;;;;
2021/07/24 15:11:49;;;;;;;;;;;;;;;;;;;;;
2021/07/24 15:14:41;;;;;;;11.27;8.30;;;24.40;99.70;;;;;;5084749;28;20008;-89
2021/07/24 15:20:34;;;;;;;12.50;10.77;;;24.30;99.90;;;;;;5037029;28;20160;-89